Speegleville, Texas
Current Conditions -  °F | °C
As of 12:51 AM on Saturday 25 Oct 2014 (Local Time) from KACT Reporting Station
Clear Clear  
Wind Chill: 69°   Ceiling: Unl
Heat Index: 69°   Visibility: 10mi
Dew Point: 59°   Wind: 12mph
Humidity: 70%   Direction: 180°S
Pressure: 30.12"   Gusts: NA
Location:  31.5356°N, 97.1921°W
Report Text: KACT 250551Z 18010KT 10SM CLR 21/15 A3012 RMK AO2 SLP193 T02060150 10233 20206 402830144 50003
Loading
Personal Weather Stations






























Interactive Weather Map New forecast layout! Learn more

10-Day Weather Forecast

Advertisements
Track Severe Weather on mobile